Time;durP1;ratioP1;P1;durP2;ratioP2;P2;SDS_P1;SDS_P2;PMS_P1;PMS_P2;Temp;Humidity;BMP_temperature;BMP_pressure;BME280_temperature;BME280_humidity;BME280_pressure;Samples;Min_cycle;Max_cycle;Signal;HPM_P1;HPM_P2
2021/10/12 00:01:02;;;;;;;1.30;0.40;;;21.80;52.00;;;;;;6319100;28;20028;-71
2021/10/12 00:04:02;;;;;;;0.50;0.50;;;21.80;52.00;;;;;;6319009;28;20032;-72
2021/10/12 00:07:05;;;;;;;0.47;0.43;;;21.80;52.10;;;;;;6318921;28;20060;-71
2021/10/12 00:10:07;;;;;;;0.70;0.50;;;21.90;52.10;;;;;;6318249;28;20071;-71
2021/10/12 00:13:07;;;;;;;0.40;0.30;;;21.80;52.10;;;;;;6319036;28;20085;-72
2021/10/12 00:16:09;;;;;;;1.10;0.45;;;21.80;52.10;;;;;;6298357;28;20079;-71
2021/10/12 00:19:10;;;;;;;0.68;0.50;;;21.80;52.10;;;;;;6311256;28;20027;-72
2021/10/12 00:22:10;;;;;;;2.05;0.50;;;21.80;52.10;;;;;;6318329;28;20492;-72
2021/10/12 00:25:11;;;;;;;0.52;0.45;;;21.80;52.10;;;;;;6318463;28;20035;-72
2021/10/12 00:28:11;;;;;;;0.93;0.45;;;21.80;52.10;;;;;;6318278;28;20020;-72
2021/10/12 00:31:12;;;;;;;0.52;0.30;;;21.80;52.10;;;;;;6318841;28;20520;-71
2021/10/12 00:34:12;;;;;;;1.13;0.40;;;21.80;52.10;;;;;;6318309;28;20031;-71
2021/10/12 00:37:13;;;;;;;0.65;0.45;;;21.80;52.10;;;;;;6318606;28;20107;-72
2021/10/12 00:40:14;;;;;;;0.30;0.30;;;21.80;52.10;;;;;;6318321;28;20028;-71
2021/10/12 00:43:14;;;;;;;0.30;0.30;;;21.80;52.20;;;;;;6317785;28;20453;-72
2021/10/12 00:46:15;;;;;;;1.02;0.50;;;21.80;52.20;;;;;;6318350;28;20067;-72
2021/10/12 00:49:16;;;;;;;0.60;0.40;;;21.80;52.10;;;;;;6318035;28;20063;-72
2021/10/12 00:52:16;;;;;;;1.25;0.47;;;21.80;52.10;;;;;;6317398;28;20024;-72
2021/10/12 00:55:17;;;;;;;0.85;0.52;;;21.80;52.20;;;;;;6318543;28;20032;-72
2021/10/12 00:58:18;;;;;;;0.70;0.40;;;21.80;52.10;;;;;;6317949;28;20097;-72
2021/10/12 01:01:20;;;;;;;0.80;0.60;;;21.80;52.20;;;;;;6317749;28;20035;-72
2021/10/12 01:04:20;;;;;;;0.75;0.50;;;21.80;52.20;;;;;;6317503;28;20036;-72
2021/10/12 01:07:21;;;;;;;0.75;0.50;;;21.80;52.10;;;;;;6318146;28;20031;-72
2021/10/12 01:10:22;;;;;;;1.17;0.40;;;21.80;52.10;;;;;;6317332;28;20419;-72
2021/10/12 01:13:23;;;;;;;1.13;0.47;;;21.80;52.10;;;;;;6317952;28;20085;-72
2021/10/12 01:16:24;;;;;;;0.68;0.47;;;21.80;52.10;;;;;;6298948;28;20020;-72
2021/10/12 01:19:24;;;;;;;0.30;0.30;;;21.80;52.10;;;;;;6317174;28;20303;-72
2021/10/12 01:22:25;;;;;;;0.57;0.40;;;21.80;52.20;;;;;;6316732;28;20024;-71
2021/10/12 01:25:27;;;;;;;0.55;0.43;;;21.80;52.20;;;;;;6317465;28;20402;-72
2021/10/12 01:28:28;;;;;;;0.50;0.40;;;21.80;52.20;;;;;;6317170;28;20020;-72
2021/10/12 01:31:29;;;;;;;1.05;0.57;;;21.80;52.20;;;;;;6317379;28;20028;-72
2021/10/12 01:34:29;;;;;;;0.30;0.30;;;21.80;52.20;;;;;;6317632;28;20060;-71
2021/10/12 01:37:30;;;;;;;0.47;0.40;;;21.80;52.20;;;;;;6317249;28;20490;-71
2021/10/12 01:40:31;;;;;;;1.20;0.50;;;21.80;52.20;;;;;;6316128;28;20024;-72
2021/10/12 01:43:32;;;;;;;0.50;0.40;;;21.80;52.20;;;;;;6316880;28;20036;-73
2021/10/12 01:46:32;;;;;;;0.43;0.38;;;21.80;52.20;;;;;;6316454;28;20032;-72
2021/10/12 01:49:33;;;;;;;0.73;0.35;;;21.80;52.20;;;;;;6317491;28;20095;-71
2021/10/12 01:52:34;;;;;;;0.40;0.40;;;21.80;52.20;;;;;;6317074;28;20051;-72
2021/10/12 01:55:34;;;;;;;0.73;0.57;;;21.80;52.20;;;;;;6316914;28;20055;-71
2021/10/12 01:58:35;;;;;;;0.52;0.40;;;21.80;52.20;;;;;;6314955;28;20028;-72
2021/10/12 02:01:36;;;;;;;0.68;0.40;;;21.80;52.30;;;;;;6316676;28;20028;-72
2021/10/12 02:04:36;;;;;;;1.17;0.50;;;21.80;52.20;;;;;;6317306;28;20443;-72
2021/10/12 02:07:37;;;;;;;0.95;0.57;;;21.80;52.20;;;;;;6315723;28;20483;-72
2021/10/12 02:10:38;;;;;;;0.95;0.50;;;21.80;52.20;;;;;;6315616;28;20460;-72
2021/10/12 02:13:39;;;;;;;0.85;0.50;;;21.80;52.20;;;;;;6316674;28;20039;-72
2021/10/12 02:16:39;;;;;;;2.35;0.65;;;21.80;52.30;;;;;;6316957;28;20023;-72
2021/10/12 02:19:40;;;;;;;0.63;0.47;;;21.80;52.30;;;;;;6316886;28;20056;-72
2021/10/12 02:22:41;;;;;;;0.57;0.40;;;21.80;52.30;;;;;;6316655;28;20032;-72
2021/10/12 02:25:41;;;;;;;1.10;0.45;;;21.80;52.30;;;;;;6316863;28;20032;-72
2021/10/12 02:28:42;;;;;;;0.60;0.40;;;21.80;52.20;;;;;;6316864;28;20035;-72
2021/10/12 02:31:42;;;;;;;0.77;0.47;;;21.80;52.30;;;;;;6317858;28;20077;-71
2021/10/12 02:34:43;;;;;;;0.57;0.40;;;21.80;52.30;;;;;;6321288;28;20024;-72
2021/10/12 02:37:43;;;;;;;0.57;0.50;;;21.80;52.30;;;;;;6320966;28;20111;-72
2021/10/12 02:40:44;;;;;;;0.95;0.60;;;21.80;52.20;;;;;;6322113;28;20105;-71
2021/10/12 02:43:44;;;;;;;0.50;0.40;;;21.80;52.20;;;;;;6320781;28;20032;-72
2021/10/12 02:46:45;;;;;;;0.45;0.40;;;21.80;52.30;;;;;;6321215;28;20028;-71
2021/10/12 02:49:46;;;;;;;0.73;0.50;;;21.80;52.30;;;;;;6321681;28;20026;-71
2021/10/12 02:52:46;;;;;;;0.57;0.47;;;21.80;52.30;;;;;;6321356;28;20506;-72
2021/10/12 02:55:47;;;;;;;1.02;0.40;;;21.80;52.30;;;;;;6321155;28;20483;-71
2021/10/12 02:58:47;;;;;;;1.15;0.55;;;21.80;52.30;;;;;;6320330;28;20020;-72
2021/10/12 03:01:48;;;;;;;0.85;0.40;;;21.80;52.30;;;;;;6320962;28;20028;-71
2021/10/12 03:04:48;;;;;;;0.60;0.43;;;21.80;52.30;;;;;;6320677;28;20035;-72
2021/10/12 03:07:49;;;;;;;0.85;0.40;;;21.80;52.30;;;;;;6320483;28;20483;-72
2021/10/12 03:10:49;;;;;;;0.35;0.20;;;21.80;52.30;;;;;;6320612;28;20048;-72
2021/10/12 03:13:50;;;;;;;0.43;0.35;;;21.80;52.30;;;;;;6318219;28;20107;-72
2021/10/12 03:16:51;;;;;;;1.35;0.40;;;21.80;52.30;;;;;;6303523;28;20095;-71
2021/10/12 03:19:51;;;;;;;0.82;0.45;;;21.80;52.30;;;;;;6319835;28;20418;-72
2021/10/12 03:22:52;;;;;;;0.50;0.35;;;21.80;52.30;;;;;;6319912;28;20047;-72
2021/10/12 03:25:52;;;;;;;1.10;0.40;;;21.80;52.40;;;;;;6320022;28;20036;-72
2021/10/12 03:28:53;;;;;;;0.70;0.45;;;21.80;52.40;;;;;;6319996;28;20078;-73
2021/10/12 03:31:53;;;;;;;0.70;0.40;;;21.80;52.40;;;;;;6319797;28;20020;-72
2021/10/12 03:34:54;;;;;;;0.32;0.30;;;21.80;52.30;;;;;;6319931;28;20475;-71
2021/10/12 03:37:56;;;;;;;0.43;0.30;;;21.80;52.30;;;;;;6319663;28;20017;-71
2021/10/12 03:40:56;;;;;;;0.65;0.30;;;21.80;52.30;;;;;;6320360;28;20058;-72
2021/10/12 03:43:57;;;;;;;0.50;0.30;;;21.80;52.40;;;;;;6318135;28;20032;-72
2021/10/12 03:46:58;;;;;;;0.28;0.28;;;21.80;52.40;;;;;;6320007;28;20035;-71
2021/10/12 03:49:58;;;;;;;0.60;0.45;;;21.80;52.40;;;;;;6319538;28;20032;-72
2021/10/12 03:52:59;;;;;;;1.02;0.40;;;21.80;52.40;;;;;;6319281;28;20088;-72
2021/10/12 03:55:59;;;;;;;1.02;0.50;;;21.80;52.40;;;;;;6319842;28;20039;-72
2021/10/12 03:59:00;;;;;;;0.30;0.30;;;21.80;52.40;;;;;;6319199;28;20024;-71
2021/10/12 04:02:00;;;;;;;0.50;0.40;;;21.80;53.00;;;;;;6319182;28;20040;-72
2021/10/12 04:05:01;;;;;;;0.65;0.40;;;21.80;52.40;;;;;;6319400;28;20073;-72
2021/10/12 04:08:02;;;;;;;0.35;0.32;;;21.80;52.40;;;;;;6318745;28;20510;-71
2021/10/12 04:11:02;;;;;;;0.60;0.30;;;21.80;52.40;;;;;;6319059;28;20044;-71
2021/10/12 04:14:03;;;;;;;0.50;0.40;;;21.70;52.30;;;;;;6315448;28;20052;-71
2021/10/12 04:17:03;;;;;;;0.70;0.40;;;21.80;52.40;;;;;;6294058;28;20024;-71
2021/10/12 04:20:05;;;;;;;0.28;0.22;;;21.80;52.40;;;;;;6318206;28;20028;-72
2021/10/12 04:23:09;;;;;;;0.60;0.30;;;21.70;52.30;;;;;;6318507;28;20036;-72
2021/10/12 04:26:12;;;;;;;0.65;0.30;;;21.70;52.30;;;;;;6317997;28;20090;-72
2021/10/12 04:29:13;;;;;;;1.50;0.40;;;21.80;52.40;;;;;;6318987;28;20028;-72
2021/10/12 04:32:13;;;;;;;0.52;0.35;;;21.80;52.70;;;;;;6318472;28;20032;-72
2021/10/12 04:35:14;;;;;;;0.52;0.43;;;21.80;52.40;;;;;;6318492;28;20024;-72
2021/10/12 04:38:14;;;;;;;0.40;0.35;;;21.80;52.40;;;;;;6318270;28;20111;-72
2021/10/12 04:41:15;;;;;;;0.52;0.38;;;21.80;52.40;;;;;;6318180;28;20028;-72
2021/10/12 04:44:16;;;;;;;0.45;0.45;;;21.80;52.40;;;;;;6318261;28;20109;-71
2021/10/12 04:47:18;;;;;;;0.35;0.32;;;21.80;52.40;;;;;;6318571;28;20104;-72
2021/10/12 04:50:19;;;;;;;1.48;0.45;;;21.80;52.40;;;;;;6318611;28;20483;-71
2021/10/12 04:53:19;;;;;;;0.68;0.40;;;21.80;52.40;;;;;;6317854;28;20039;-72
2021/10/12 04:56:20;;;;;;;0.50;0.35;;;21.70;53.00;;;;;;6318258;28;20036;-72
2021/10/12 04:59:21;;;;;;;0.40;0.38;;;21.80;52.40;;;;;;6316082;28;20046;-71
2021/10/12 05:02:21;;;;;;;0.77;0.38;;;21.80;52.40;;;;;;6311102;28;20047;-72
2021/10/12 05:05:22;;;;;;;0.55;0.40;;;21.70;52.30;;;;;;6318096;28;20038;-71
2021/10/12 05:08:22;;;;;;;0.35;0.35;;;21.70;52.30;;;;;;6318383;28;20032;-72
2021/10/12 05:11:23;;;;;;;0.95;0.30;;;21.80;52.40;;;;;;6317831;28;20109;-71
2021/10/12 05:14:23;;;;;;;1.05;0.40;;;21.80;52.40;;;;;;6311330;28;20380;-72
2021/10/12 05:17:33;;;;;;;0.30;0.30;;;21.80;52.40;;;;;;6305347;28;20020;-71
2021/10/12 05:20:34;;;;;;;0.88;0.40;;;21.70;52.30;;;;;;6317931;28;20020;-72
2021/10/12 05:23:34;;;;;;;0.32;0.30;;;21.70;52.30;;;;;;6317675;28;20116;-71
2021/10/12 05:26:35;;;;;;;0.40;0.40;;;21.80;52.40;;;;;;6317269;28;20043;-72
2021/10/12 05:29:36;;;;;;;0.93;0.40;;;21.80;52.40;;;;;;6317553;28;20030;-72
2021/10/12 05:32:38;;;;;;;0.70;0.38;;;21.80;52.40;;;;;;6317350;28;20020;-72
2021/10/12 05:35:39;;;;;;;0.30;0.30;;;21.80;52.40;;;;;;6316905;28;20017;-71
2021/10/12 05:38:40;;;;;;;0.57;0.40;;;21.80;52.40;;;;;;6317562;28;20020;-72
2021/10/12 05:41:41;;;;;;;0.40;0.40;;;21.80;52.40;;;;;;6317510;28;20395;-72
2021/10/12 05:44:41;;;;;;;0.43;0.30;;;21.80;52.40;;;;;;6317426;28;20028;-72
2021/10/12 05:47:42;;;;;;;1.40;0.55;;;21.70;52.30;;;;;;6315351;28;20032;-72
2021/10/12 05:50:44;;;;;;;0.28;0.28;;;21.80;52.40;;;;;;6317691;28;20126;-72
2021/10/12 05:53:48;;;;;;;1.80;0.50;;;21.80;52.40;;;;;;6316458;28;20101;-72
2021/10/12 05:56:56;;;;;;;8.55;0.85;;;21.80;52.30;;;;;;6317360;28;20081;-74
2021/10/12 05:59:57;;;;;;;9.15;1.60;;;21.90;52.10;;;;;;6311188;28;20103;-73
2021/10/12 06:02:57;;;;;;;6.68;2.45;;;21.90;52.20;;;;;;6298976;28;20055;-72
2021/10/12 06:05:59;;;;;;;10.18;3.40;;;21.90;52.20;;;;;;6293260;28;20071;-72
2021/10/12 06:08:59;;;;;;;10.73;2.95;;;21.90;52.20;;;;;;6314758;28;20122;-72
2021/10/12 06:12:00;;;;;;;12.27;3.17;;;21.90;52.20;;;;;;6303604;28;20048;-71
2021/10/12 06:15:00;;;;;;;14.05;3.58;;;21.90;52.30;;;;;;6318513;28;20028;-72
2021/10/12 06:18:01;;;;;;;14.48;4.43;;;21.90;52.40;;;;;;6323416;28;20047;-72
2021/10/12 06:21:02;;;;;;;13.55;4.25;;;21.80;52.40;;;;;;6319705;28;20031;-72
2021/10/12 06:24:03;;;;;;;10.63;4.03;;;21.80;52.40;;;;;;6322336;28;20074;-71
2021/10/12 06:27:03;;;;;;;15.35;4.28;;;21.80;52.50;;;;;;6322439;28;20032;-72
2021/10/12 06:30:05;;;;;;;12.98;4.07;;;21.80;52.50;;;;;;6323723;28;20111;-72
2021/10/12 06:33:05;;;;;;;9.52;3.45;;;21.80;52.50;;;;;;6322220;28;20024;-72
2021/10/12 06:36:06;;;;;;;11.07;3.83;;;21.80;52.50;;;;;;6322847;28;20035;-72
2021/10/12 06:39:06;;;;;;;8.57;3.13;;;21.80;52.60;;;;;;6322386;28;20099;-72
2021/10/12 06:42:07;;;;;;;9.07;3.55;;;21.80;52.50;;;;;;6321773;28;20036;-72
2021/10/12 06:45:08;;;;;;;8.00;3.10;;;21.80;52.50;;;;;;6321624;28;20035;-71
2021/10/12 06:48:08;;;;;;;11.52;3.25;;;21.80;52.60;;;;;;6322471;28;20028;-72
2021/10/12 06:51:09;;;;;;;8.20;3.03;;;21.80;52.60;;;;;;6322326;28;20028;-72
2021/10/12 06:54:09;;;;;;;13.00;3.67;;;21.80;53.90;;;;;;6321876;28;20110;-72
2021/10/12 06:57:11;;;;;;;6.50;3.00;;;21.80;53.00;;;;;;6320391;28;20027;-72
2021/10/12 07:00:13;;;;;;;10.80;2.80;;;21.90;52.70;;;;;;6322446;28;20104;-71
2021/10/12 07:03:14;;;;;;;10.27;3.00;;;21.90;52.60;;;;;;6321247;28;20031;-71
2021/10/12 07:06:15;;;;;;;8.95;3.72;;;22.00;52.70;;;;;;6322943;28;20016;-73
2021/10/12 07:09:16;;;;;;;7.90;3.15;;;22.10;53.00;;;;;;6321847;28;20462;-72
2021/10/12 07:12:17;;;;;;;11.90;2.67;;;22.10;53.00;;;;;;6321477;28;20043;-72
2021/10/12 07:15:18;;;;;;;7.38;2.70;;;22.10;52.80;;;;;;6308324;28;20094;-74
2021/10/12 07:18:18;;;;;;;9.15;2.65;;;22.20;52.90;;;;;;6312785;28;20046;-72
2021/10/12 07:21:19;;;;;;;4.55;2.10;;;22.20;52.80;;;;;;6322203;28;20383;-74
2021/10/12 07:24:19;;;;;;;5.60;2.38;;;22.20;52.70;;;;;;6320992;28;20474;-74
2021/10/12 07:27:20;;;;;;;6.45;2.00;;;22.20;52.70;;;;;;6317546;28;20020;-72
2021/10/12 07:30:21;;;;;;;3.45;2.00;;;22.20;52.70;;;;;;6322274;28;20099;-73
2021/10/12 07:33:21;;;;;;;4.40;1.90;;;22.20;52.50;;;;;;6320836;28;20026;-72
2021/10/12 07:36:22;;;;;;;4.07;2.03;;;22.10;52.60;;;;;;6321887;28;20632;-73
2021/10/12 07:39:22;;;;;;;10.05;2.10;;;22.10;52.70;;;;;;6321275;28;20028;-72
2021/10/12 07:42:23;;;;;;;2.88;1.75;;;22.00;52.60;;;;;;6320880;28;20036;-72
2021/10/12 07:45:24;;;;;;;4.68;1.90;;;22.00;52.20;;;;;;6316253;28;20077;-72
2021/10/12 07:48:24;;;;;;;4.38;1.85;;;22.00;52.00;;;;;;6320594;28;20032;-72
2021/10/12 07:51:26;;;;;;;5.47;1.73;;;22.00;52.00;;;;;;6321640;28;20028;-72
2021/10/12 07:54:38;;;;;;;4.22;1.80;;;22.00;52.10;;;;;;6321134;28;20024;-72
2021/10/12 07:57:38;;;;;;;5.30;1.60;;;22.00;52.40;;;;;;6319271;28;20078;-72
2021/10/12 08:00:39;;;;;;;2.53;1.30;;;21.90;52.30;;;;;;6296951;28;20423;-72
2021/10/12 08:03:41;;;;;;;4.53;1.55;;;21.90;52.30;;;;;;6304140;28;20032;-72
2021/10/12 08:06:42;;;;;;;2.40;1.30;;;21.90;52.30;;;;;;6313146;28;20479;-72
2021/10/12 08:09:42;;;;;;;5.63;1.50;;;21.90;52.30;;;;;;6320568;28;20078;-73
2021/10/12 08:12:45;;;;;;;7.32;2.22;;;21.90;52.20;;;;;;6320169;28;20089;-71
2021/10/12 08:16:01;;;;;;;8.50;1.88;;;21.90;51.60;;;;;;6303256;28;20035;-72
2021/10/12 08:19:05;;;;;;;7.97;1.60;;;21.90;51.20;;;;;;6311325;28;20082;-72
2021/10/12 08:22:05;;;;;;;5.93;1.77;;;21.90;50.90;;;;;;6321073;28;20054;-72
2021/10/12 08:25:08;;;;;;;8.32;2.00;;;21.80;50.40;;;;;;6319882;28;20034;-71
2021/10/12 08:28:08;;;;;;;4.30;1.73;;;21.80;49.90;;;;;;6320292;28;20020;-72
2021/10/12 08:31:09;;;;;;;3.33;1.00;;;21.80;50.40;;;;;;6318682;28;20119;-71
2021/10/12 08:34:09;;;;;;;6.43;1.40;;;21.80;49.90;;;;;;6320183;28;20020;-72
2021/10/12 08:37:10;;;;;;;5.75;1.20;;;21.80;50.10;;;;;;6319971;28;20032;-72
2021/10/12 08:40:16;;;;;;;3.15;1.20;;;21.80;50.30;;;;;;6320284;28;20030;-71
2021/10/12 08:43:17;;;;;;;4.20;1.10;;;21.80;50.40;;;;;;6319972;28;20468;-71
2021/10/12 08:46:20;;;;;;;5.25;1.10;;;21.80;50.70;;;;;;6319807;28;20031;-71
2021/10/12 08:49:21;;;;;;;2.85;1.25;;;21.80;50.80;;;;;;6320040;28;20081;-72
2021/10/12 08:52:22;;;;;;;1.35;0.70;;;21.80;50.90;;;;;;6319802;28;20099;-71
2021/10/12 08:55:23;;;;;;;4.97;1.17;;;21.80;51.10;;;;;;6308738;28;20020;-71
2021/10/12 08:58:24;;;;;;;3.80;1.05;;;21.80;51.10;;;;;;6312356;28;20540;-72
2021/10/12 09:01:27;;;;;;;3.97;0.75;;;21.80;51.10;;;;;;6320551;28;20047;-72
2021/10/12 09:04:41;;;;;;;2.72;1.20;;;21.80;51.20;;;;;;6308087;28;20074;-73
2021/10/12 09:07:44;;;;;;;4.68;0.77;;;21.80;51.30;;;;;;6315142;28;20036;-72
2021/10/12 09:10:44;;;;;;;4.43;0.75;;;21.80;51.30;;;;;;6320082;28;20054;-72
2021/10/12 09:13:47;;;;;;;3.15;1.15;;;21.80;51.40;;;;;;6319511;28;20016;-72
2021/10/12 09:16:47;;;;;;;2.25;0.70;;;21.80;51.50;;;;;;6294915;28;20032;-72
2021/10/12 09:19:48;;;;;;;5.50;1.13;;;21.80;51.40;;;;;;6318095;28;20130;-73
2021/10/12 09:23:12;;;;;;;1.20;0.57;;;21.80;51.40;;;;;;6320546;28;20044;-72
2021/10/12 09:26:21;;;;;;;1.73;0.90;;;21.80;51.40;;;;;;6319913;28;20052;-71
2021/10/12 09:29:24;;;;;;;1.95;0.90;;;21.80;51.50;;;;;;6319603;28;20023;-72
2021/10/12 09:32:33;;;;;;;2.10;0.98;;;21.80;51.50;;;;;;6320313;28;20451;-73
2021/10/12 09:35:35;;;;;;;2.58;1.00;;;21.80;51.60;;;;;;6318639;28;20027;-72
2021/10/12 09:38:44;;;;;;;1.58;0.70;;;21.80;51.60;;;;;;6320390;28;20028;-73
2021/10/12 09:41:46;;;;;;;2.17;0.60;;;21.80;51.60;;;;;;6318769;28;20060;-72
2021/10/12 09:44:50;;;;;;;3.17;0.68;;;21.80;51.60;;;;;;6319807;28;20054;-71
2021/10/12 09:47:51;;;;;;;1.17;0.68;;;21.80;51.60;;;;;;6318924;28;20528;-72
2021/10/12 09:51:16;;;;;;;1.85;0.82;;;21.80;51.70;;;;;;6317711;28;20085;-73
2021/10/12 09:54:25;;;;;;;2.57;0.90;;;21.80;51.60;;;;;;6319570;28;20487;-72
2021/10/12 09:57:30;;;;;;;2.08;0.75;;;21.80;51.60;;;;;;6318974;28;20028;-72
2021/10/12 10:00:31;;;;;;;2.05;0.95;;;21.80;51.60;;;;;;6319420;28;20475;-73
2021/10/12 10:03:32;;;;;;;1.70;0.82;;;21.80;51.70;;;;;;6319109;28;20032;-72
2021/10/12 10:06:34;;;;;;;2.10;1.00;;;21.80;51.70;;;;;;6319119;28;20103;-72
2021/10/12 10:09:35;;;;;;;1.02;0.70;;;21.80;51.80;;;;;;6315323;28;20054;-73
2021/10/12 10:12:36;;;;;;;1.20;0.55;;;21.70;51.70;;;;;;6319359;28;20031;-73
2021/10/12 10:15:36;;;;;;;0.77;0.57;;;21.80;51.70;;;;;;6300909;28;20369;-72
2021/10/12 10:18:41;;;;;;;1.65;0.80;;;21.80;51.80;;;;;;6307487;28;20024;-73
2021/10/12 10:21:46;;;;;;;1.23;0.60;;;21.80;51.80;;;;;;6319034;28;20020;-72
2021/10/12 10:24:55;;;;;;;1.50;0.60;;;21.80;51.80;;;;;;6318574;28;20881;-72
2021/10/12 10:28:17;;;;;;;1.65;0.70;;;21.80;51.70;;;;;;6318900;28;20028;-72
2021/10/12 10:31:36;;;;;;;1.30;0.77;;;21.80;51.70;;;;;;6295456;28;20167;-72
2021/10/12 10:34:45;;;;;;;2.45;0.68;;;21.80;51.90;;;;;;6318471;28;20030;-72
2021/10/12 10:37:50;;;;;;;1.17;0.60;;;21.80;51.90;;;;;;6318944;28;20020;-72
2021/10/12 10:41:04;;;;;;;1.00;0.80;;;21.80;51.80;;;;;;6319367;28;20036;-73
2021/10/12 10:44:05;;;;;;;2.05;0.80;;;21.80;51.80;;;;;;6318579;28;20059;-72
2021/10/12 10:47:05;;;;;;;1.02;0.65;;;21.80;51.80;;;;;;6318747;28;20020;-72
2021/10/12 10:50:28;;;;;;;1.05;0.80;;;21.80;51.90;;;;;;6318455;28;20031;-73
2021/10/12 10:53:39;;;;;;;1.15;0.55;;;21.80;51.80;;;;;;6320665;28;20066;-72
2021/10/12 10:57:11;;;;;;;1.30;0.70;;;21.70;51.80;;;;;;6323573;28;20379;-72
2021/10/12 11:00:12;;;;;;;2.13;0.70;;;21.70;51.70;;;;;;6323476;28;20036;-72
2021/10/12 11:03:30;;;;;;;1.10;0.68;;;21.80;51.90;;;;;;6322765;28;20051;-72
2021/10/12 11:06:31;;;;;;;0.75;0.50;;;21.80;51.90;;;;;;6323323;28;20444;-72
2021/10/12 11:09:42;;;;;;;1.00;0.50;;;21.80;51.80;;;;;;6321744;28;20031;-72
2021/10/12 11:12:43;;;;;;;1.70;0.70;;;21.80;51.90;;;;;;6322814;28;20086;-72
2021/10/12 11:15:50;;;;;;;1.35;0.45;;;21.80;51.90;;;;;;6322363;28;20032;-72
2021/10/12 11:19:00;;;;;;;0.80;0.60;;;21.80;51.90;;;;;;6322013;28;20027;-72
2021/10/12 11:22:01;;;;;;;0.50;0.38;;;21.80;51.90;;;;;;6322670;28;20039;-72
2021/10/12 11:25:01;;;;;;;0.80;0.50;;;21.70;51.80;;;;;;6322234;28;20038;-72
2021/10/12 11:28:10;;;;;;;1.77;0.55;;;21.70;51.70;;;;;;6322219;28;20036;-72
2021/10/12 11:31:13;;;;;;;0.82;0.47;;;21.80;51.80;;;;;;6322569;28;20073;-72
2021/10/12 11:34:24;;;;;;;0.77;0.70;;;21.80;51.90;;;;;;6322632;28;20024;-71
2021/10/12 11:37:25;;;;;;;0.80;0.50;;;21.70;51.80;;;;;;6322507;28;20031;-72
2021/10/12 11:40:26;;;;;;;4.55;0.50;;;21.80;51.80;;;;;;6322278;28;20016;-72
2021/10/12 11:43:39;;;;;;;0.93;0.40;;;21.80;51.90;;;;;;6321836;28;20111;-71
2021/10/12 11:47:02;;;;;;;1.05;0.57;;;21.70;51.90;;;;;;6321412;28;20016;-73
2021/10/12 11:50:10;;;;;;;1.50;0.52;;;21.80;51.90;;;;;;6321663;28;20024;-72
2021/10/12 11:53:26;;;;;;;1.75;0.60;;;21.70;51.90;;;;;;6321713;28;20102;-72
2021/10/12 11:56:29;;;;;;;;;;;21.80;52.00;;;;;;6322108;28;20383;-72
2021/10/12 11:59:35;;;;;;;0.60;0.32;;;21.70;51.90;;;;;;6319985;28;20426;-72
2021/10/12 12:02:35;;;;;;;1.05;0.52;;;21.70;51.80;;;;;;6321513;28;20024;-72
2021/10/12 12:05:36;;;;;;;0.50;0.50;;;21.80;51.90;;;;;;6320260;28;20047;-71
2021/10/12 12:08:40;;;;;;;0.68;0.50;;;21.80;51.80;;;;;;6321627;28;20028;-72
2021/10/12 12:11:41;;;;;;;1.45;0.50;;;21.70;51.80;;;;;;6320876;28;20046;-72
2021/10/12 12:14:42;;;;;;;0.57;0.40;;;21.80;51.90;;;;;;6321042;28;20111;-72
2021/10/12 12:17:43;;;;;;;0.88;0.52;;;21.70;51.80;;;;;;6320805;28;20016;-72
2021/10/12 12:20:54;;;;;;;1.20;0.50;;;21.70;51.90;;;;;;6321489;28;20376;-72
2021/10/12 12:23:56;;;;;;;1.83;0.60;;;21.80;51.90;;;;;;6321017;28;20495;-72
2021/10/12 12:27:04;;;;;;;0.65;0.55;;;21.70;51.70;;;;;;6314508;28;20089;-71
2021/10/12 12:30:09;;;;;;;1.05;0.60;;;21.70;51.80;;;;;;6320956;28;20046;-72
2021/10/12 12:33:10;;;;;;;0.52;0.40;;;21.70;51.70;;;;;;6320659;28;20055;-72
2021/10/12 12:36:11;;;;;;;0.60;0.40;;;21.70;51.70;;;;;;6320987;28;20072;-73
2021/10/12 12:39:11;;;;;;;0.85;0.40;;;21.80;51.80;;;;;;6320979;28;20017;-73
2021/10/12 12:42:37;;;;;;;0.50;0.50;;;21.80;51.80;;;;;;6320254;28;20036;-73
2021/10/12 12:45:37;;;;;;;0.93;0.50;;;21.70;51.80;;;;;;6320739;28;20031;-72
2021/10/12 12:48:40;;;;;;;2.15;0.77;;;21.70;52.40;;;;;;6320580;28;20028;-72
2021/10/12 12:51:47;;;;;;;0.70;0.40;;;21.70;51.80;;;;;;6320258;28;20048;-71
2021/10/12 12:54:47;;;;;;;0.73;0.47;;;21.80;51.80;;;;;;6320311;28;20493;-71
2021/10/12 12:57:55;;;;;;;1.08;0.40;;;21.80;51.90;;;;;;6294760;28;20028;-72
2021/10/12 13:01:00;;;;;;;2.28;0.50;;;21.80;51.80;;;;;;6318146;28;20032;-72
2021/10/12 13:04:01;;;;;;;0.73;0.50;;;21.70;51.80;;;;;;6313531;28;20066;-72
2021/10/12 13:07:02;;;;;;;1.35;0.40;;;21.70;51.80;;;;;;6318301;28;20046;-71
2021/10/12 13:10:02;;;;;;;2.20;0.60;;;21.80;51.90;;;;;;6318550;28;20499;-72
2021/10/12 13:13:03;;;;;;;2.90;0.50;;;21.70;51.90;;;;;;6316091;28;20058;-72
2021/10/12 13:16:05;;;;;;;3.03;0.30;;;21.70;52.20;;;;;;6318868;28;20092;-71
2021/10/12 13:19:05;;;;;;;3.65;0.52;;;21.70;51.80;;;;;;6318891;28;20092;-72
2021/10/12 13:22:06;;;;;;;1.48;0.55;;;21.70;51.40;;;;;;6319686;28;20073;-72
2021/10/12 13:25:09;;;;;;;3.70;0.50;;;21.70;51.70;;;;;;6318164;28;20223;-72
2021/10/12 13:28:10;;;;;;;1.58;0.55;;;21.70;51.10;;;;;;6315766;28;20035;-72
2021/10/12 13:31:10;;;;;;;3.65;0.73;;;21.60;51.20;;;;;;6315685;28;20025;-72
2021/10/12 13:34:11;;;;;;;1.45;0.55;;;21.70;50.90;;;;;;6318472;28;20535;-71
2021/10/12 13:37:11;;;;;;;1.88;0.50;;;21.60;50.70;;;;;;6316985;28;20026;-71
2021/10/12 13:40:13;;;;;;;2.40;0.70;;;21.60;50.30;;;;;;6318399;28;20148;-72
2021/10/12 13:43:14;;;;;;;1.52;0.43;;;21.60;50.20;;;;;;6318585;28;20483;-72
2021/10/12 13:46:15;;;;;;;2.67;0.90;;;21.60;50.20;;;;;;6317287;28;20028;-72
2021/10/12 13:49:16;;;;;;;2.15;0.40;;;21.60;49.30;;;;;;6310912;28;20028;-71
2021/10/12 13:52:19;;;;;;;2.92;0.70;;;21.60;49.80;;;;;;6300634;28;20494;-71
2021/10/12 13:55:23;;;;;;;2.20;0.80;;;21.60;49.70;;;;;;6303767;28;20047;-71
2021/10/12 13:58:23;;;;;;;2.35;0.55;;;21.60;49.50;;;;;;6308817;28;20062;-72
2021/10/12 14:01:24;;;;;;;3.63;0.88;;;21.60;49.40;;;;;;6314917;28;20032;-72
2021/10/12 14:04:25;;;;;;;0.98;0.60;;;21.60;49.00;;;;;;6318765;28;20063;-72
2021/10/12 14:07:25;;;;;;;1.80;0.50;;;21.60;49.00;;;;;;6313321;28;20032;-72
2021/10/12 14:10:26;;;;;;;1.65;0.70;;;21.60;48.90;;;;;;6309600;28;20056;-71
2021/10/12 14:13:28;;;;;;;2.15;0.77;;;21.60;48.70;;;;;;6306917;28;20085;-71
2021/10/12 14:16:28;;;;;;;4.47;0.70;;;21.60;48.70;;;;;;6297900;28;20501;-72
2021/10/12 14:19:29;;;;;;;4.93;0.55;;;21.60;48.50;;;;;;6317437;28;20051;-72
2021/10/12 14:22:30;;;;;;;4.80;0.80;;;21.50;48.40;;;;;;6317868;28;20024;-72
2021/10/12 14:25:30;;;;;;;2.90;0.90;;;21.50;48.30;;;;;;6316739;28;20031;-72
2021/10/12 14:28:31;;;;;;;2.20;0.60;;;21.50;48.30;;;;;;6319165;28;20024;-72
2021/10/12 14:31:32;;;;;;;1.58;0.60;;;21.50;48.20;;;;;;6323085;28;20103;-72
2021/10/12 14:34:32;;;;;;;4.00;0.60;;;21.50;48.00;;;;;;6321836;28;20174;-71
2021/10/12 14:37:33;;;;;;;1.67;0.70;;;21.50;47.80;;;;;;6321381;28;20506;-71
2021/10/12 14:40:34;;;;;;;5.43;0.70;;;21.50;47.80;;;;;;6322125;28;20521;-72
2021/10/12 14:43:35;;;;;;;1.50;0.70;;;21.50;47.90;;;;;;6322391;28;20031;-72
2021/10/12 14:46:36;;;;;;;4.93;0.70;;;21.50;47.60;;;;;;6321839;28;20020;-71
2021/10/12 14:49:37;;;;;;;1.92;0.80;;;21.50;47.50;;;;;;6320948;28;20028;-72
2021/10/12 14:52:37;;;;;;;3.25;0.98;;;21.50;47.50;;;;;;6321764;28;20034;-72
2021/10/12 14:55:38;;;;;;;2.97;0.88;;;21.50;47.30;;;;;;6322227;28;20377;-71
2021/10/12 14:58:38;;;;;;;2.17;0.80;;;21.50;47.20;;;;;;6321803;28;20028;-71
2021/10/12 15:01:39;;;;;;;3.95;0.80;;;21.50;47.00;;;;;;6312345;28;20377;-72
2021/10/12 15:04:39;;;;;;;3.60;0.63;;;21.50;47.00;;;;;;6320835;28;20032;-71
2021/10/12 15:07:42;;;;;;;7.10;0.77;;;21.50;46.80;;;;;;6320656;28;20373;-72
2021/10/12 15:10:43;;;;;;;1.27;0.60;;;21.50;46.70;;;;;;6321443;28;20044;-72
2021/10/12 15:13:44;;;;;;;2.88;0.80;;;21.50;46.50;;;;;;6314633;28;20035;-72
2021/10/12 15:16:45;;;;;;;1.85;0.60;;;21.40;46.40;;;;;;6302822;28;20027;-72
2021/10/12 15:19:46;;;;;;;3.05;0.70;;;21.40;46.30;;;;;;6304177;28;20031;-72
2021/10/12 15:22:47;;;;;;;1.52;0.68;;;21.40;46.00;;;;;;6306734;28;20071;-72
2021/10/12 15:25:48;;;;;;;4.35;0.90;;;21.40;45.90;;;;;;6308574;28;20023;-72
2021/10/12 15:28:48;;;;;;;2.40;0.68;;;21.40;45.90;;;;;;6318585;28;20046;-72
2021/10/12 15:31:49;;;;;;;2.10;0.70;;;21.40;46.10;;;;;;6321375;28;20077;-71
2021/10/12 15:34:51;;;;;;;3.00;0.60;;;21.40;45.80;;;;;;6308244;28;20032;-72
2021/10/12 15:37:52;;;;;;;2.53;0.63;;;21.40;45.80;;;;;;6310286;28;20368;-72
2021/10/12 15:40:56;;;;;;;1.92;0.70;;;21.40;44.30;;;;;;6310066;28;20024;-72
2021/10/12 15:43:56;;;;;;;2.05;0.50;;;21.50;45.30;;;;;;6320593;28;20040;-72
2021/10/12 15:46:57;;;;;;;2.38;0.70;;;21.50;45.50;;;;;;6320562;28;20019;-71